Galahad, Canada
Current Conditions -  °F | °C
As of 7:00 AM on Friday 19 Dec 2014 (Local Time) from CYQF Reporting Station
Few Clouds Few Clouds  
Wind Chill: 16°   Ceiling: Unl
Heat Index: 16°   Visibility: 15mi
Dew Point: 14°   Wind: 3mph
Humidity: 93%   Direction: 180°S
Pressure: 29.68"   Gusts: NA
Location:  52.52°N, 111.92°W
Report Text: CYQF 191400Z 18003KT 15SM FEW240 M09/M10 A2968 RMK CI1 SLP107
Loading
Personal Weather Stations






























Interactive Weather Map New forecast layout! Learn more

10-Day Weather Forecast

Advertisements
Track Severe Weather on mobile